Time;durP1;ratioP1;P1;durP2;ratioP2;P2;SDS_P1;SDS_P2;PMS_P1;PMS_P2;Temp;Humidity;BMP_temperature;BMP_pressure;BME280_temperature;BME280_humidity;BME280_pressure;Samples;Min_cycle;Max_cycle;Signal;HPM_P1;HPM_P2
2022/02/05 00:01:34;;;;;;;6.45;5.28;;;;;;;-7.35;75.46;100844.19;5076724;28;20122;-69
2022/02/05 00:04:06;;;;;;;7.78;5.35;;;;;;;-7.36;74.81;100834.75;5094824;28;20036;-68
2022/02/05 00:06:35;;;;;;;7.03;4.90;;;;;;;-7.37;74.69;100822.72;5076758;28;20089;-68
2022/02/05 00:42:37;;;;;;;7.72;5.85;;;;;;;-7.60;75.26;100732.03;4963707;28;20083;-70
2022/02/05 00:45:40;;;;;;;6.30;5.32;;;;;;;-7.20;74.74;100784.22;5064807;28;20066;-69
2022/02/05 00:48:37;;;;;;;6.63;5.50;;;;;;;-7.41;74.77;100746.09;4998960;28;20045;-69
2022/02/05 00:54:21;;;;;;;8.35;6.85;;;;;;;-7.25;75.43;100778.31;5010959;28;20599;-68
2022/02/05 00:56:51;;;;;;;8.63;5.55;;;;;;;-7.36;75.24;100749.38;5011341;28;20104;-68
2022/02/05 00:59:20;;;;;;;8.60;5.65;;;;;;;-7.23;74.33;100779.16;5081595;28;20548;-68
2022/02/05 01:01:48;;;;;;;7.22;5.88;;;;;;;-7.20;74.84;100763.50;5075880;28;20044;-68
2022/02/05 01:04:13;;;;;;;7.93;5.45;;;;;;;-7.35;75.22;100739.88;5093320;28;20510;-68
2022/02/05 01:06:40;;;;;;;6.33;5.73;;;;;;;-7.51;75.32;100732.63;5093402;28;20074;-68
2022/02/05 01:09:10;;;;;;;8.73;7.82;;;;;;;-7.49;76.05;100737.75;5093164;28;20040;-68
2022/02/05 01:11:36;;;;;;;7.50;5.55;;;;;;;-7.42;75.46;100749.56;5094403;28;20119;-69
2022/02/05 01:14:04;;;;;;;6.20;5.10;;;;;;;-7.41;75.33;100759.03;5092625;28;20503;-69
2022/02/05 01:18:57;;;;;;;6.35;4.93;;;;;;;-7.47;75.89;100754.06;5092630;28;20047;-68
2022/02/05 01:24:00;;;;;;;7.88;6.07;;;;;;;-7.47;76.24;100738.53;5074834;28;20036;-69
2022/02/05 01:26:35;;;;;;;7.82;5.43;;;;;;;-7.58;75.60;100720.75;5093091;28;20032;-69
2022/02/05 01:29:06;;;;;;;6.80;6.03;;;;;;;-7.64;75.98;100709.78;5093158;28;20035;-68
2022/02/05 01:31:40;;;;;;;7.72;5.50;;;;;;;-7.46;76.04;100735.06;5094335;28;20032;-70
2022/02/05 01:34:17;;;;;;;8.85;5.25;;;;;;;-7.73;75.47;100686.81;5075507;28;20040;-68
2022/02/05 02:07:00;;;;;;;6.88;6.20;;;;;;;-7.71;75.93;100652.25;5092351;28;20048;-69
2022/02/05 02:11:59;;;;;;;6.28;5.28;;;;;;;-7.87;76.24;100644.13;5092125;28;20506;-72
2022/02/05 02:25:38;;;;;;;6.95;5.43;;;;;;;-8.57;76.33;100504.31;5093525;28;20067;-69
2022/02/05 02:28:23;;;;;;;6.68;5.70;;;;;;;-7.81;75.96;100604.28;5092663;28;20088;-68
2022/02/05 02:31:18;;;;;;;6.15;5.55;;;;;;;-7.67;75.78;100617.63;5057616;28;20129;-71
2022/02/05 02:33:54;;;;;;;;;;;;;;;-7.67;75.96;100621.94;5091486;28;20051;-72
2022/02/05 02:39:04;;;;;;;5.78;5.22;;;;;;;-7.62;76.02;100601.94;5091924;28;20028;-69
2022/02/05 02:41:42;;;;;;;7.93;4.95;;;;;;;-7.69;75.86;100583.22;5091685;28;20035;-70
2022/02/05 02:44:07;;;;;;;6.47;4.72;;;;;;;-7.81;75.36;100558.63;5093851;28;20410;-69
2022/02/05 02:46:33;;;;;;;5.90;4.70;;;;;;;-8.42;75.44;100464.22;5093695;28;20040;-70
2022/02/05 02:49:11;;;;;;;5.28;4.78;;;;;;;-7.63;75.47;100574.41;5092378;28;20062;-69
2022/02/05 02:57:18;;;;;;;7.45;5.50;;;;;;;-7.72;74.78;100557.47;5096170;28;20042;-70
2022/02/05 02:59:58;;;;;;;7.97;5.47;;;;;;;-7.77;75.38;100551.63;5096060;28;20051;-73
2022/02/05 03:02:26;;;;;;;6.30;4.93;;;;;;;-7.77;75.51;100559.38;5096322;28;20073;-70
2022/02/05 03:04:53;;;;;;;6.05;5.20;;;;;;;-7.80;75.66;100549.13;5077716;28;20032;-70
2022/02/05 03:07:23;;;;;;;6.90;5.00;;;;;;;-7.84;76.14;100548.38;5096396;28;20047;-69
2022/02/05 03:09:50;;;;;;;8.05;6.20;;;;;;;-7.80;76.11;100551.72;5078107;28;20061;-68
2022/02/05 03:12:16;;;;;;;6.97;6.28;;;;;;;-8.18;75.74;100471.13;5078219;28;20050;-69
2022/02/05 03:14:42;;;;;;;6.82;5.43;;;;;;;-7.88;75.33;100533.03;5096136;28;20510;-67
2022/02/05 03:17:19;;;;;;;7.17;5.60;;;;;;;-8.11;75.85;100497.59;5077655;28;20036;-68
2022/02/05 03:19:47;;;;;;;9.13;7.40;;;;;;;-8.04;75.60;100519.78;5096175;28;20119;-68
2022/02/05 03:22:17;;;;;;;6.95;5.15;;;;;;;-7.89;75.52;100547.69;5097577;28;20042;-68
2022/02/05 03:24:43;;;;;;;7.93;5.07;;;;;;;-8.02;75.40;100523.16;5098083;28;20051;-68
2022/02/05 03:27:11;;;;;;;7.32;5.50;;;;;;;-7.90;75.40;100533.06;5100394;28;20048;-69
2022/02/05 03:29:37;;;;;;;5.55;4.95;;;;;;;-8.08;75.72;100523.38;5102256;28;20032;-68
2022/02/05 03:32:02;;;;;;;8.03;6.03;;;;;;;-7.90;76.18;100542.56;5099916;28;20122;-68
2022/02/05 03:34:28;;;;;;;6.23;5.73;;;;;;;-7.91;76.09;100526.22;5080911;28;20129;-69
2022/02/05 03:36:55;;;;;;;6.37;5.47;;;;;;;-7.84;75.79;100522.53;5082741;28;20077;-71
2022/02/05 03:39:20;;;;;;;7.60;6.63;;;;;;;-7.76;75.75;100513.69;5102030;28;20040;-69
2022/02/05 03:41:46;;;;;;;5.20;4.70;;;;;;;-7.96;75.71;100473.84;5101182;28;20100;-68
2022/02/05 03:44:11;;;;;;;6.43;4.70;;;;;;;-7.85;76.15;100478.63;5099951;28;20035;-74
2022/02/05 03:46:37;;;;;;;9.23;5.23;;;;;;;-7.72;75.19;100485.06;5097162;28;20036;-70
2022/02/05 03:49:03;;;;;;;6.70;4.73;;;;;;;-7.62;75.22;100495.94;5077192;28;20031;-69
2022/02/05 03:51:28;;;;;;;5.43;4.90;;;;;;;-7.93;74.68;100429.78;5098437;28;20368;-68
2022/02/05 03:53:54;;;;;;;6.10;5.50;;;;;;;-7.63;75.01;100478.72;5097100;28;20039;-69
2022/02/05 03:56:19;;;;;;;6.07;5.10;;;;;;;-7.68;74.85;100485.81;5097093;28;20047;-70
2022/02/05 03:58:45;;;;;;;7.00;5.03;;;;;;;-7.66;75.59;100478.84;5097149;28;20052;-70
2022/02/05 04:01:10;;;;;;;5.63;4.87;;;;;;;-7.60;74.93;100488.94;5096771;28;20066;-69
2022/02/05 04:03:36;;;;;;;5.97;4.63;;;;;;;-7.53;74.74;100486.09;5097315;28;20578;-68
2022/02/05 04:06:02;;;;;;;5.87;5.00;;;;;;;-7.52;74.71;100481.75;5096557;28;20032;-69
2022/02/05 04:08:56;;;;;;;6.60;5.90;;;;;;;-7.51;74.45;100484.31;5099373;28;20638;-69
2022/02/05 04:11:33;;;;;;;7.20;5.65;;;;;;;-7.52;74.27;100481.75;5064376;28;20101;-70
2022/02/05 04:16:47;;;;;;;6.07;5.05;;;;;;;-7.53;74.66;100449.03;5098627;28;20047;-69
2022/02/05 04:19:13;;;;;;;7.28;5.60;;;;;;;-7.47;74.54;100454.00;5097918;28;20081;-68
2022/02/05 04:21:38;;;;;;;6.80;5.53;;;;;;;-7.44;74.56;100459.06;5099043;28;20036;-70
2022/02/05 04:24:04;;;;;;;7.80;5.37;;;;;;;-7.62;74.42;100413.19;5079357;28;20040;-68
2022/02/05 04:26:30;;;;;;;6.93;5.72;;;;;;;-7.47;74.42;100435.91;5096070;28;20028;-70
2022/02/05 04:28:56;;;;;;;9.80;5.97;;;;;;;-7.56;74.49;100412.94;5095160;28;20055;-68
2022/02/05 04:31:22;;;;;;;6.40;5.70;;;;;;;-7.55;75.12;100422.38;5059386;28;20059;-67
2022/02/05 04:33:48;;;;;;;6.95;6.15;;;;;;;-7.84;75.16;100356.25;5097365;28;20406;-67
2022/02/05 04:36:14;;;;;;;8.93;5.43;;;;;;;-7.76;75.25;100361.16;5095876;28;20136;-67
2022/02/05 04:38:42;;;;;;;8.65;6.65;;;;;;;-7.50;75.10;100403.25;5076195;28;20036;-70
2022/02/05 04:41:18;;;;;;;8.30;5.47;;;;;;;-7.60;75.04;100391.53;5092905;28;20032;-68
2022/02/05 04:46:52;;;;;;;10.57;6.43;;;;;;;-7.51;75.50;100395.53;5093745;28;20466;-68
2022/02/05 04:49:31;;;;;;;6.40;5.80;;;;;;;-7.64;74.84;100378.78;5091879;28;20040;-69
2022/02/05 04:52:22;;;;;;;7.10;5.60;;;;;;;-7.46;74.71;100409.13;5075432;28;20032;-71
2022/02/05 04:55:15;;;;;;;6.45;5.47;;;;;;;-7.41;74.61;100402.03;5093485;28;20035;-68
2022/02/05 04:57:56;;;;;;;6.65;5.40;;;;;;;-7.57;74.85;100380.22;5093400;28;20066;-69
2022/02/05 05:00:44;;;;;;;6.13;5.53;;;;;;;-7.45;75.02;100384.97;5093535;28;20056;-69
2022/02/05 05:06:01;;;;;;;7.07;6.05;;;;;;;-7.60;75.81;100370.84;5093286;28;20036;-67
2022/02/05 05:08:42;;;;;;;9.23;6.88;;;;;;;-7.59;75.45;100363.94;5093336;28;20526;-69
2022/02/05 05:21:12;;;;;;;7.05;6.15;;;;;;;-7.41;74.90;100360.66;5093115;28;20111;-69
2022/02/05 05:23:38;;;;;;;10.63;6.83;;;;;;;-7.45;75.04;100364.25;5074829;28;20564;-70
2022/02/05 05:26:04;;;;;;;10.13;7.18;;;;;;;-7.65;75.45;100323.63;5092752;28;20513;-68
2022/02/05 05:28:29;;;;;;;10.00;7.13;;;;;;;-7.48;75.52;100332.50;5091535;28;20032;-68
2022/02/05 05:30:54;;;;;;;9.43;7.37;;;;;;;-7.52;75.33;100334.34;5074715;28;20032;-68
2022/02/05 05:33:20;;;;;;;10.10;7.23;;;;;;;-7.61;75.69;100324.34;5074904;28;20032;-69
2022/02/05 05:35:46;;;;;;;10.53;7.10;;;;;;;-7.52;75.84;100335.22;5093284;28;20038;-68
2022/02/05 05:38:11;;;;;;;9.07;7.87;;;;;;;-7.59;75.03;100319.97;5093571;28;20058;-68
2022/02/05 05:40:39;;;;;;;7.97;7.17;;;;;;;-7.53;75.30;100322.31;5093922;28;20441;-69
2022/02/05 05:43:16;;;;;;;11.52;7.78;;;;;;;-7.59;74.85;100304.44;5092723;28;20036;-68
2022/02/05 05:48:41;;;;;;;12.13;8.68;;;;;;;-7.60;75.30;100332.06;5092125;28;20054;-71
2022/02/05 05:51:07;;;;;;;13.80;8.75;;;;;;;-7.70;76.00;100298.88;5090502;28;20032;-70
2022/02/05 05:53:32;;;;;;;13.00;8.37;;;;;;;-7.62;76.19;100299.41;5090954;28;20028;-68
2022/02/05 05:55:58;;;;;;;11.53;9.53;;;;;;;-7.59;75.88;100299.28;5073981;28;20032;-68
2022/02/05 05:58:24;;;;;;;10.68;7.65;;;;;;;-7.70;75.22;100270.41;5073690;28;20028;-68
2022/02/05 06:00:51;;;;;;;11.30;7.90;;;;;;;-7.62;75.66;100278.72;5092170;28;20085;-66
2022/02/05 06:03:17;;;;;;;11.20;8.32;;;;;;;-7.62;75.68;100284.72;5075940;28;20108;-68
2022/02/05 06:05:43;;;;;;;13.60;8.77;;;;;;;-7.58;75.13;100285.44;5091836;28;20118;-66
2022/02/05 06:08:09;;;;;;;12.93;9.17;;;;;;;-7.69;75.45;100272.09;5092543;28;20067;-69
2022/02/05 06:10:34;;;;;;;11.63;8.80;;;;;;;-7.76;75.82;100261.16;5093977;28;20039;-71
2022/02/05 06:13:05;;;;;;;11.45;7.25;;;;;;;-7.59;75.51;100273.41;5091641;28;20480;-69
2022/02/05 06:15:31;;;;;;;10.63;9.40;;;;;;;-7.62;75.09;100264.03;5091257;28;20044;-75
2022/02/05 06:17:56;;;;;;;11.43;8.50;;;;;;;-7.59;75.42;100261.34;5091503;28;20039;-70
2022/02/05 06:20:22;;;;;;;14.13;9.43;;;;;;;-7.73;75.32;100245.53;5091546;28;20032;-71
2022/02/05 06:22:47;;;;;;;15.60;9.83;;;;;;;-7.72;75.74;100239.47;5056142;28;20055;-75
2022/02/05 06:25:13;;;;;;;11.60;10.37;;;;;;;-7.79;75.45;100245.78;5092063;28;20123;-72
2022/02/05 06:27:38;;;;;;;11.97;9.93;;;;;;;-7.85;75.87;100226.16;5073356;28;20483;-74
2022/02/05 06:30:08;;;;;;;13.47;9.50;;;;;;;-7.75;76.00;100249.94;5091519;28;20032;-74
2022/02/05 06:32:36;;;;;;;13.25;8.98;;;;;;;-7.73;76.08;100234.34;5091982;28;20120;-75
2022/02/05 06:35:02;;;;;;;13.43;8.13;;;;;;;-7.59;76.08;100242.38;5073613;28;20157;-68
2022/02/05 06:37:31;;;;;;;11.03;8.03;;;;;;;-7.91;75.87;100184.22;5091912;28;20070;-71
2022/02/05 06:39:56;;;;;;;16.33;8.98;;;;;;;-7.60;76.12;100227.78;5092199;28;20089;-67
2022/02/05 06:42:22;;;;;;;12.33;8.87;;;;;;;-7.62;75.89;100230.44;5091935;28;20039;-70
2022/02/05 06:44:47;;;;;;;15.37;11.13;;;;;;;-7.91;75.70;100184.22;5091628;28;20526;-68
2022/02/05 06:47:13;;;;;;;15.43;9.60;;;;;;;-7.64;76.34;100218.47;5073724;28;20032;-70
2022/02/05 06:49:38;;;;;;;11.30;8.37;;;;;;;-7.59;75.95;100208.78;5056687;28;20406;-67
2022/02/05 06:52:06;;;;;;;16.00;9.23;;;;;;;-7.39;75.98;100224.34;5091251;28;20449;-66
2022/02/05 06:54:32;;;;;;;13.18;7.65;;;;;;;-7.41;74.92;100210.63;5073547;28;20489;-65
2022/02/05 06:56:57;;;;;;;12.17;9.03;;;;;;;-7.47;75.14;100202.28;5091775;28;20119;-68
2022/02/05 06:59:25;;;;;;;13.57;9.30;;;;;;;-7.48;75.36;100209.19;5091415;28;20067;-68
2022/02/05 07:01:50;;;;;;;11.68;8.23;;;;;;;-7.42;75.04;100221.03;5092006;28;20044;-74
2022/02/05 07:04:17;;;;;;;15.40;9.83;;;;;;;-7.42;75.79;100203.78;5091696;28;20093;-72
2022/02/05 07:06:42;;;;;;;19.90;10.32;;;;;;;-7.36;75.52;100219.03;5073380;28;20028;-71
2022/02/05 07:09:08;;;;;;;12.83;9.03;;;;;;;-7.35;75.82;100207.78;5039191;28;20109;-64
2022/02/05 07:11:36;;;;;;;10.97;8.73;;;;;;;-7.25;76.56;100203.91;5091556;28;20414;-65
2022/02/05 07:14:05;;;;;;;12.25;8.93;;;;;;;-7.31;76.00;100196.41;5092242;28;20072;-72
2022/02/05 07:16:36;;;;;;;14.57;9.02;;;;;;;-7.27;75.66;100195.34;5091499;28;20036;-66
2022/02/05 07:31:21;;;;;;;10.05;7.30;;;;;;;-7.18;75.30;100176.88;5083953;28;20432;-65
2022/02/05 07:33:48;;;;;;;12.43;8.30;;;;;;;-7.01;74.48;100208.94;5092174;28;20036;-63
2022/02/05 07:36:15;;;;;;;13.48;9.18;;;;;;;-7.10;75.73;100184.31;5095013;28;20040;-64
2022/02/05 07:38:41;;;;;;;16.35;8.25;;;;;;;-7.07;74.83;100185.91;5094863;28;20032;-62
2022/02/05 07:48:29;;;;;;;10.20;8.27;;;;;;;-7.02;75.24;100181.38;5094926;28;20093;-58
2022/02/05 07:50:55;;;;;;;12.50;7.50;;;;;;;-7.04;74.98;100170.25;5094899;28;20513;-60
2022/02/05 07:53:20;;;;;;;21.23;7.95;;;;;;;-7.02;75.08;100171.03;5088540;28;20112;-62
2022/02/05 07:55:46;;;;;;;14.23;8.13;;;;;;;-7.11;75.21;100148.97;5083064;28;20044;-61
2022/02/05 07:58:11;;;;;;;10.90;7.70;;;;;;;-7.03;75.86;100161.59;5076672;28;20045;-63
2022/02/05 08:00:37;;;;;;;13.87;7.97;;;;;;;-7.11;77.30;100161.09;5056560;28;20391;-66
2022/02/05 08:03:02;;;;;;;10.77;8.13;;;;;;;-7.05;76.95;100150.47;5074434;28;20028;-65
2022/02/05 08:05:28;;;;;;;22.90;8.97;;;;;;;-6.95;77.04;100156.91;5073105;28;20032;-68
2022/02/05 08:07:59;;;;;;;12.57;7.87;;;;;;;-6.95;76.54;100136.19;5073414;28;20356;-67
2022/02/05 08:10:32;;;;;;;12.85;7.43;;;;;;;-6.89;76.03;100151.50;5073930;28;20057;-64
2022/02/05 08:13:00;;;;;;;18.40;9.07;;;;;;;-7.01;76.66;100142.50;5081089;28;20052;-64
2022/02/05 08:15:28;;;;;;;14.52;8.45;;;;;;;-7.10;77.59;100127.38;5074242;28;20498;-70
2022/02/05 08:17:54;;;;;;;12.20;9.13;;;;;;;-7.05;77.46;100120.25;5074214;28;20135;-66
2022/02/05 08:20:20;;;;;;;13.10;7.28;;;;;;;-6.83;77.42;100127.91;5081154;28;20027;-66
2022/02/05 08:22:45;;;;;;;13.77;8.60;;;;;;;-6.75;76.23;100122.38;5087407;28;20457;-69
2022/02/05 08:25:11;;;;;;;11.63;9.13;;;;;;;-6.96;76.77;100116.41;5059510;28;20043;-67
2022/02/05 08:27:38;;;;;;;16.23;7.45;;;;;;;-6.94;77.69;100130.97;5094280;28;20040;-71
2022/02/05 08:30:09;;;;;;;11.68;8.68;;;;;;;-7.02;77.34;100114.94;5094055;28;20486;-67
2022/02/05 08:32:39;;;;;;;14.88;7.65;;;;;;;-6.91;77.42;100115.31;5085665;28;20056;-65
2022/02/05 08:35:08;;;;;;;15.40;7.75;;;;;;;-6.82;76.78;100113.22;5079494;28;20040;-72
2022/02/05 08:37:44;;;;;;;10.43;7.57;;;;;;;-6.83;77.09;100099.44;5088068;28;20043;-67
2022/02/05 08:40:10;;;;;;;18.25;8.65;;;;;;;-6.78;76.52;100094.88;5075678;28;20051;-66
2022/02/05 08:42:37;;;;;;;12.38;7.85;;;;;;;-6.82;76.65;100084.72;5093831;28;20044;-66
2022/02/05 08:45:04;;;;;;;19.20;10.20;;;;;;;-6.69;76.12;100094.44;5093069;28;20024;-64
2022/02/05 08:47:30;;;;;;;9.20;7.28;;;;;;;-6.64;75.90;100089.91;5093494;28;20081;-67
2022/02/05 08:49:56;;;;;;;12.85;8.18;;;;;;;-6.60;75.37;100083.69;5075379;28;20036;-65
2022/02/05 08:52:22;;;;;;;13.27;7.38;;;;;;;-6.43;75.34;100092.41;5094690;28;20099;-65
2022/02/05 08:54:48;;;;;;;12.03;7.33;;;;;;;-6.37;74.35;100072.22;5097585;28;20074;-67
2022/02/05 08:57:13;;;;;;;10.10;7.97;;;;;;;-6.24;74.02;100077.69;5094236;28;20034;-66
2022/02/05 09:00:00;;;;;;;10.50;7.73;;;;;;;-6.26;73.54;100074.31;5075644;28;20100;-66
2022/02/05 09:02:38;;;;;;;11.65;7.03;;;;;;;-6.08;72.91;100078.59;5075039;28;20363;-66
2022/02/05 09:05:11;;;;;;;12.13;7.47;;;;;;;-6.17;73.23;100075.63;5093110;28;20054;-68
2022/02/05 09:07:37;;;;;;;11.35;8.30;;;;;;;-6.05;73.31;100068.13;5083458;28;20043;-71
2022/02/05 09:10:13;;;;;;;12.43;8.53;;;;;;;-6.07;73.29;100056.13;5074745;28;20039;-71
2022/02/05 09:15:07;;;;;;;13.57;8.23;;;;;;;-6.19;72.89;100030.81;5075000;28;20047;-73
2022/02/05 09:17:33;;;;;;;13.55;8.10;;;;;;;-6.58;72.74;99965.31;5075332;28;20036;-69
2022/02/05 09:19:59;;;;;;;11.05;6.97;;;;;;;-5.93;73.06;100046.75;5094109;28;20047;-71
2022/02/05 09:22:27;;;;;;;9.67;6.73;;;;;;;-5.91;72.19;100043.25;5093573;28;20036;-70
2022/02/05 09:24:52;;;;;;;11.07;7.45;;;;;;;-5.86;72.43;100036.88;5041978;28;20028;-71
2022/02/05 09:27:19;;;;;;;10.27;7.53;;;;;;;-6.12;72.03;100001.06;5091611;28;20027;-69
2022/02/05 09:30:02;;;;;;;10.32;7.55;;;;;;;-6.04;72.37;100028.31;5077416;28;20028;-69
2022/02/05 09:32:31;;;;;;;11.57;8.43;;;;;;;-6.00;73.19;100032.44;5093802;28;20134;-69
2022/02/05 09:34:57;;;;;;;13.68;8.13;;;;;;;-6.01;72.50;100028.16;5094239;28;20048;-73
2022/02/05 09:37:48;;;;;;;13.25;7.05;;;;;;;-6.01;73.39;100020.38;5093003;28;20052;-68
2022/02/05 09:40:14;;;;;;;14.38;8.45;;;;;;;-6.00;72.66;100024.66;5093553;28;20127;-70
2022/02/05 09:42:47;;;;;;;14.23;8.30;;;;;;;-6.20;72.74;100006.66;5075804;28;20510;-73
2022/02/05 09:45:13;;;;;;;9.95;6.93;;;;;;;-6.19;73.04;100003.13;5093684;28;20036;-68
2022/02/05 09:47:39;;;;;;;13.80;8.68;;;;;;;-6.09;72.63;100009.53;5093504;28;20098;-72
2022/02/05 09:50:05;;;;;;;13.03;9.00;;;;;;;-5.91;72.60;100017.31;5093745;28;20490;-70
2022/02/05 09:52:30;;;;;;;11.57;7.43;;;;;;;-5.95;72.20;100008.84;5093251;28;20035;-72
2022/02/05 09:54:56;;;;;;;10.03;7.50;;;;;;;-5.83;71.67;100015.97;5058968;28;20077;-70
2022/02/05 09:57:22;;;;;;;9.63;7.10;;;;;;;-5.83;71.51;100008.19;5091333;28;20051;-70
2022/02/05 10:00:01;;;;;;;10.47;6.57;;;;;;;-5.87;71.26;99996.31;5092082;28;20039;-65
2022/02/05 10:02:37;;;;;;;11.93;7.95;;;;;;;-5.99;71.96;100010.78;5091944;28;20040;-62
2022/02/05 10:05:16;;;;;;;9.38;7.55;;;;;;;-6.00;73.43;100003.06;5057359;28;20065;-65
2022/02/05 10:07:54;;;;;;;9.48;6.55;;;;;;;-5.77;72.71;100009.66;5091865;28;20131;-68
2022/02/05 10:10:20;;;;;;;11.80;8.70;;;;;;;-5.85;71.77;100007.44;5092524;28;20073;-69
2022/02/05 10:13:06;;;;;;;10.70;7.18;;;;;;;-6.00;72.78;99997.88;5091948;28;20492;-65
2022/02/05 10:15:33;;;;;;;10.93;7.10;;;;;;;-6.09;73.20;99988.78;5092114;28;20247;-65
2022/02/05 10:17:58;;;;;;;13.55;8.60;;;;;;;-5.98;72.69;99990.88;5074104;28;20047;-66
2022/02/05 10:20:24;;;;;;;14.83;7.37;;;;;;;-5.85;72.62;99996.22;5092503;28;20437;-66
2022/02/05 10:22:49;;;;;;;10.73;7.53;;;;;;;-5.85;71.68;99975.50;5091775;28;20032;-65
2022/02/05 10:25:19;;;;;;;14.47;8.03;;;;;;;-5.81;71.81;99967.47;5074170;28;20065;-65
2022/02/05 10:27:46;;;;;;;10.30;6.93;;;;;;;-5.89;71.58;99956.66;5091666;28;20122;-71
2022/02/05 10:30:21;;;;;;;8.63;6.72;;;;;;;-5.84;70.84;99972.81;5073807;28;20409;-63
2022/02/05 10:32:51;;;;;;;10.45;8.63;;;;;;;-5.88;71.40;99976.47;5091892;28;20079;-65
2022/02/05 10:35:23;;;;;;;15.73;8.75;;;;;;;-6.03;72.83;99972.97;5091667;28;20036;-64
2022/02/05 10:38:33;;;;;;;9.30;6.78;;;;;;;-6.05;73.54;99979.97;5092397;28;20063;-69
2022/02/05 10:43:53;;;;;;;13.73;7.07;;;;;;;-5.93;72.92;99958.59;5092782;28;20465;-65
2022/02/05 10:46:18;;;;;;;12.95;8.10;;;;;;;-5.89;72.01;99948.06;5091377;28;20081;-70
2022/02/05 10:48:44;;;;;;;16.20;10.60;;;;;;;-5.73;72.22;99948.94;5091294;28;20079;-68
2022/02/05 10:51:09;;;;;;;11.63;7.27;;;;;;;-6.06;71.89;99904.88;5091944;28;20036;-66
2022/02/05 10:53:50;;;;;;;24.20;11.13;;;;;;;-5.83;71.48;99945.13;5091498;28;20036;-65
2022/02/05 10:56:36;;;;;;;21.83;7.45;;;;;;;-5.84;71.10;99930.50;5091391;28;20028;-69
2022/02/05 11:07:10;;;;;;;21.42;12.07;;;;;;;-6.06;71.54;99874.63;5081852;28;20071;-64
2022/02/05 11:09:41;;;;;;;21.17;9.93;;;;;;;-5.61;70.79;99917.16;5083679;28;20113;-65
2022/02/05 11:20:07;;;;;;;8.93;6.50;;;;;;;-5.89;72.09;99898.81;5083290;28;20040;-67
2022/02/05 11:22:35;;;;;;;26.23;11.07;;;;;;;-5.82;71.35;99897.53;5089359;28;20157;-65
2022/02/05 11:25:05;;;;;;;21.45;10.20;;;;;;;-5.79;71.87;99902.56;5062921;28;21156;-65
2022/02/05 11:27:31;;;;;;;12.25;7.65;;;;;;;-5.82;71.81;99908.75;5069332;28;20429;-65
2022/02/05 11:29:56;;;;;;;17.33;6.20;;;;;;;-5.92;71.90;99899.81;5085164;28;20047;-65
2022/02/05 11:32:31;;;;;;;8.97;6.57;;;;;;;-6.00;72.03;99895.03;5086799;28;20489;-65
2022/02/05 11:35:08;;;;;;;10.30;6.60;;;;;;;-5.93;72.40;99913.69;5085664;28;20051;-62
2022/02/05 11:37:58;;;;;;;11.00;6.75;;;;;;;-5.90;71.83;99904.91;5084722;28;20094;-64
2022/02/05 11:40:54;;;;;;;7.80;6.07;;;;;;;-5.84;72.19;99894.19;5089099;28;20067;-64
2022/02/05 11:43:28;;;;;;;10.40;6.90;;;;;;;-5.92;72.03;99881.66;5059775;28;20429;-66
2022/02/05 11:46:07;;;;;;;11.50;7.47;;;;;;;-6.02;72.20;99885.66;5095000;28;20482;-66
2022/02/05 11:48:36;;;;;;;15.90;9.50;;;;;;;-6.00;73.03;99900.22;5087590;28;20462;-65
2022/02/05 11:51:11;;;;;;;13.80;7.95;;;;;;;-5.91;72.41;99887.69;5084901;28;20032;-64
2022/02/05 11:53:55;;;;;;;13.18;7.15;;;;;;;-5.87;72.47;99902.97;5076612;28;20044;-66
2022/02/05 11:56:22;;;;;;;12.07;8.30;;;;;;;-5.97;72.44;99888.84;5065846;28;20134;-64
2022/02/05 11:58:57;;;;;;;8.65;6.88;;;;;;;-6.10;73.29;99899.00;5082332;28;20036;-66
2022/02/05 12:01:37;;;;;;;12.13;8.10;;;;;;;-6.43;73.26;99861.84;5081246;28;20142;-68
2022/02/05 12:04:22;;;;;;;12.57;7.85;;;;;;;-6.21;74.31;99877.97;5074469;28;20067;-66
2022/02/05 12:07:05;;;;;;;8.55;7.03;;;;;;;-6.20;73.74;99869.28;5077845;28;20150;-64
2022/02/05 12:09:40;;;;;;;10.70;7.22;;;;;;;-6.28;74.54;99858.50;5050177;28;20044;-68
2022/02/05 12:12:34;;;;;;;9.30;7.68;;;;;;;-6.16;75.05;99868.22;5076520;28;20024;-66
2022/02/05 12:15:18;;;;;;;12.25;7.63;;;;;;;-6.12;74.17;99842.97;5095601;28;20072;-65
2022/02/05 12:20:57;;;;;;;12.95;7.88;;;;;;;-6.07;74.55;99847.03;5094182;28;20067;-66
2022/02/05 12:26:35;;;;;;;9.90;6.63;;;;;;;-6.08;75.07;99850.50;5082317;28;20085;-65
2022/02/05 12:29:02;;;;;;;11.02;6.82;;;;;;;-6.32;75.36;99831.91;5076479;28;20040;-65
2022/02/05 12:31:34;;;;;;;10.40;7.53;;;;;;;-6.11;75.83;99853.25;5067599;28;21121;-67
2022/02/05 12:34:11;;;;;;;20.50;8.70;;;;;;;-6.13;76.25;99846.47;5085038;28;20048;-64
2022/02/05 12:36:46;;;;;;;11.43;7.70;;;;;;;-6.11;76.35;99860.19;5085052;28;20040;-68
2022/02/05 12:39:12;;;;;;;9.75;7.60;;;;;;;-6.21;76.55;99823.56;5081296;28;20548;-70
2022/02/05 12:41:44;;;;;;;18.67;8.13;;;;;;;-6.15;76.50;99832.75;5058438;28;20384;-66
2022/02/05 12:44:09;;;;;;;12.52;7.57;;;;;;;-6.24;76.75;99818.53;5060797;28;20389;-64
2022/02/05 12:46:41;;;;;;;10.30;6.43;;;;;;;-5.99;75.90;99839.66;5060669;28;20138;-64
2022/02/05 12:49:22;;;;;;;10.90;6.57;;;;;;;-5.98;75.94;99838.75;5082475;28;20039;-70
2022/02/05 12:51:49;;;;;;;11.30;6.20;;;;;;;-5.90;75.72;99821.94;5088524;28;20028;-69
2022/02/05 12:54:20;;;;;;;11.80;6.65;;;;;;;-5.76;74.42;99822.03;5083607;28;20079;-65
2022/02/05 12:56:47;;;;;;;12.43;7.72;;;;;;;-5.86;74.79;99813.03;5056109;28;20078;-71
2022/02/05 12:59:17;;;;;;;10.18;7.43;;;;;;;-5.95;75.01;99830.81;5081879;28;20070;-66
2022/02/05 13:02:06;;;;;;;11.25;7.50;;;;;;;-6.00;75.71;99838.00;5095174;28;20063;-64
2022/02/05 13:04:34;;;;;;;13.75;7.03;;;;;;;-6.27;75.54;99791.03;5076993;28;20040;-63
2022/02/05 13:07:07;;;;;;;11.48;7.05;;;;;;;-6.02;75.94;99829.47;5096263;28;20089;-70
2022/02/05 13:09:43;;;;;;;11.48;6.85;;;;;;;-5.98;75.69;99830.13;5078119;28;20075;-69
2022/02/05 13:12:11;;;;;;;10.63;7.13;;;;;;;-6.21;75.59;99773.50;5095327;28;20060;-70
2022/02/05 13:14:48;;;;;;;7.93;5.88;;;;;;;-5.91;75.83;99825.47;5093942;28;20039;-71
2022/02/05 13:33:36;;;;;;;9.20;6.75;;;;;;;-6.09;76.43;99796.16;5082072;28;20056;-69
2022/02/05 13:38:59;;;;;;;12.30;6.75;;;;;;;-6.11;77.24;99806.59;5082011;28;20038;-66
2022/02/05 13:41:34;;;;;;;12.82;8.52;;;;;;;-6.14;77.09;99799.00;5088662;28;20486;-65
2022/02/05 13:44:04;;;;;;;12.25;6.50;;;;;;;-6.13;77.37;99785.13;5075059;28;20518;-69
2022/02/05 13:46:29;;;;;;;15.50;9.55;;;;;;;-6.11;76.63;99791.06;5094001;28;20044;-66
2022/02/05 13:49:13;;;;;;;11.40;6.60;;;;;;;-6.11;76.75;99783.28;5074921;28;20408;-67
2022/02/05 13:51:41;;;;;;;11.32;7.93;;;;;;;-6.02;76.37;99798.34;5093672;28;20424;-67
2022/02/05 13:54:09;;;;;;;12.85;7.95;;;;;;;-6.12;76.62;99773.81;5093967;28;20040;-68
2022/02/05 13:56:36;;;;;;;11.88;8.05;;;;;;;-6.27;76.26;99753.94;5093985;28;20063;-67
2022/02/05 13:59:03;;;;;;;13.18;7.05;;;;;;;-6.03;75.99;99791.50;5076731;28;20032;-70
2022/02/05 14:01:38;;;;;;;10.18;7.32;;;;;;;-6.02;76.06;99800.94;5094489;28;20081;-70
2022/02/05 14:04:15;;;;;;;11.93;7.15;;;;;;;-6.05;76.35;99788.16;5094635;28;20032;-65
2022/02/05 14:06:50;;;;;;;12.20;7.13;;;;;;;-5.96;76.28;99798.03;5093826;28;20494;-70
2022/02/05 14:09:29;;;;;;;9.98;7.00;;;;;;;-6.27;76.03;99746.16;5076107;28;20759;-75
2022/02/05 14:12:18;;;;;;;11.43;7.07;;;;;;;-6.09;75.91;99768.47;5061013;28;20487;-69
2022/02/05 14:14:58;;;;;;;13.05;7.63;;;;;;;-6.00;75.92;99785.31;5054708;28;20040;-68
2022/02/05 14:17:26;;;;;;;12.38;7.88;;;;;;;-5.98;75.42;99784.31;5055308;28;20147;-70
2022/02/05 14:20:04;;;;;;;16.38;7.07;;;;;;;-5.97;75.91;99770.44;5082776;28;20127;-70
2022/02/05 14:22:33;;;;;;;42.63;7.72;;;;;;;-5.87;76.14;99785.44;5057989;28;20130;-70
2022/02/05 14:25:17;;;;;;;26.35;9.43;;;;;;;-5.97;75.75;99756.63;5073963;28;20034;-69
2022/02/05 14:28:05;;;;;;;8.80;6.50;;;;;;;-5.86;76.93;99784.53;5057282;28;20024;-67
2022/02/05 14:30:33;;;;;;;7.63;6.50;;;;;;;-5.81;76.51;99795.47;5092768;28;20043;-69
2022/02/05 14:33:04;;;;;;;13.32;7.18;;;;;;;-5.91;75.96;99784.81;5073602;28;20165;-64
2022/02/05 14:43:08;;;;;;;13.03;6.77;;;;;;;-5.82;76.18;99791.22;5080933;28;20032;-70
2022/02/05 14:45:34;;;;;;;16.42;8.27;;;;;;;-5.85;75.59;99784.44;5079472;28;20527;-70
2022/02/05 14:48:00;;;;;;;17.10;7.07;;;;;;;-5.89;76.29;99787.31;5054209;28;20044;-66